createdAt,value
2017-04-03T00:00:40.086Z,1025.96
2017-04-03T00:01:49.454Z,1025.95
2017-04-03T00:02:58.666Z,1025.95
2017-04-03T00:04:07.555Z,1025.96
2017-04-03T00:05:16.452Z,1025.94
2017-04-03T00:06:25.338Z,1025.92
2017-04-03T00:07:35.032Z,1025.88
2017-04-03T00:08:44.253Z,1025.94
2017-04-03T00:09:53.467Z,1025.94
2017-04-03T00:11:02.361Z,1025.9
2017-04-03T00:12:11.249Z,1025.92
2017-04-03T00:13:20.186Z,1025.93
2017-04-03T00:14:29.071Z,1025.94
2017-04-03T00:15:37.958Z,1025.93
2017-04-03T00:16:47.169Z,1025.99
2017-04-03T00:17:56.381Z,1025.97
2017-04-03T00:19:05.272Z,1025.98
2017-04-03T00:20:14.491Z,1025.93
2017-04-03T00:21:23.382Z,1025.94
2017-04-03T00:22:32.272Z,1025.95
2017-04-03T00:23:41.160Z,1025.96
2017-04-03T00:24:50.202Z,1025.93
2017-04-03T00:25:59.741Z,1025.92
2017-04-03T00:27:08.634Z,1025.93
2017-04-03T00:28:17.523Z,1025.89
2017-04-03T00:29:26.411Z,1025.92
2017-04-03T00:30:36.101Z,1025.92
2017-04-03T00:31:44.990Z,1025.89
2017-04-03T00:32:53.882Z,1025.93
2017-04-03T00:34:03.419Z,1025.98
2017-04-03T00:35:12.310Z,1025.97
2017-04-03T00:36:21.451Z,1025.96
2017-04-03T00:37:30.988Z,1025.96
2017-04-03T00:38:39.881Z,1025.94
2017-04-03T00:39:49.099Z,1025.95
2017-04-03T00:40:57.992Z,1025.97
2017-04-03T00:42:06.991Z,1025.99
2017-04-03T00:43:15.890Z,1026.02
2017-04-03T00:44:25.110Z,1025.98
2017-04-03T00:45:34.000Z,1026.04
2017-04-03T00:46:42.894Z,1026.07
2017-04-03T00:47:51.789Z,1025.99
2017-04-03T00:49:00.679Z,1026.05
2017-04-03T00:50:09.574Z,1026.04
2017-04-03T00:51:18.799Z,1026.05
2017-04-03T00:52:27.690Z,1026.01
2017-04-03T00:53:36.580Z,1026.08
2017-04-03T00:54:45.470Z,1026.09
2017-04-03T00:55:54.685Z,1026.09
2017-04-03T00:57:03.585Z,1026.11
2017-04-03T00:58:12.797Z,1026.13
2017-04-03T00:59:22.267Z,1026.13
2017-04-03T01:00:31.180Z,1026.15
2017-04-03T01:01:40.072Z,1026.15
2017-04-03T01:02:48.962Z,1026.1
2017-04-03T01:03:57.852Z,1026.15
2017-04-03T01:05:06.891Z,1026.11
2017-04-03T01:06:15.781Z,1026.11
2017-04-03T01:07:25.006Z,1026.1
2017-04-03T01:08:34.229Z,1026.11
2017-04-03T01:09:43.119Z,1026.07
2017-04-03T01:10:52.171Z,1026.09
2017-04-03T01:12:01.721Z,1026.09
2017-04-03T01:13:11.260Z,1026.11
2017-04-03T01:14:20.472Z,1026.12
2017-04-03T01:15:29.689Z,1026.14
2017-04-03T01:16:39.213Z,1026.21
2017-04-03T01:17:48.429Z,1026.13
2017-04-03T01:18:57.319Z,1026.12
2017-04-03T01:20:06.874Z,1026.07
2017-04-03T01:21:15.767Z,1026.11
2017-04-03T01:22:25.237Z,1026.06
2017-04-03T01:23:34.452Z,1026.17
2017-04-03T01:24:43.676Z,1026.13
2017-04-03T01:25:52.566Z,1026.15
2017-04-03T01:27:01.457Z,1026.13
2017-04-03T01:28:10.870Z,1026.13
2017-04-03T01:29:20.081Z,1026.14
2017-04-03T01:30:28.972Z,1026.1
2017-04-03T01:31:37.863Z,1026.11
2017-04-03T01:32:46.750Z,1026.13
2017-04-03T01:33:55.966Z,1026.12
2017-04-03T01:35:05.184Z,1026.12
2017-04-03T01:36:14.402Z,1026.14
2017-04-03T01:37:23.614Z,1026.15
2017-04-03T01:38:32.833Z,1026.17
2017-04-03T01:39:42.345Z,1026.18
2017-04-03T01:40:51.560Z,1026.21
2017-04-03T01:42:00.474Z,1026.27
2017-04-03T01:43:09.371Z,1026.26
2017-04-03T01:44:18.259Z,1026.23
2017-04-03T01:45:27.304Z,1026.26
2017-04-03T01:46:36.519Z,1026.3
2017-04-03T01:47:45.738Z,1026.34
2017-04-03T01:48:54.962Z,1026.36
2017-04-03T01:50:04.176Z,1026.37
2017-04-03T01:51:13.490Z,1026.37
2017-04-03T01:52:23.031Z,1026.44
2017-04-03T01:53:32.247Z,1026.45
2017-04-03T01:54:41.140Z,1026.47
2017-04-03T01:55:50.031Z,1026.46
2017-04-03T01:56:59.024Z,1026.43
2017-04-03T01:58:07.913Z,1026.47
2017-04-03T01:59:17.449Z,1026.48
2017-04-03T02:00:26.336Z,1026.43
2017-04-03T02:01:35.230Z,1026.52
2017-04-03T02:02:44.773Z,1026.49
2017-04-03T02:03:53.987Z,1026.46
2017-04-03T02:05:03.531Z,1026.47
2017-04-03T02:06:12.417Z,1026.47
2017-04-03T02:07:21.308Z,1026.47
2017-04-03T02:08:30.495Z,1026.46
2017-04-03T02:09:39.756Z,1026.48
2017-04-03T02:10:48.655Z,1026.46
2017-04-03T02:11:58.198Z,1026.49
2017-04-03T02:13:07.412Z,1026.49
2017-04-03T02:14:16.881Z,1026.46
2017-04-03T02:15:25.775Z,1026.48
2017-04-03T02:16:34.665Z,1026.51
2017-04-03T02:17:43.557Z,1026.5
2017-04-03T02:18:52.445Z,1026.45
2017-04-03T02:20:01.636Z,1026.51
2017-04-03T02:21:10.522Z,1026.5
2017-04-03T02:22:19.733Z,1026.52
2017-04-03T02:23:29.271Z,1026.47
2017-04-03T02:24:38.163Z,1026.45
2017-04-03T02:25:47.377Z,1026.5
2017-04-03T02:26:56.272Z,1026.48
2017-04-03T02:28:05.169Z,1026.5
2017-04-03T02:29:14.060Z,1026.55
2017-04-03T02:30:22.947Z,1026.54
2017-04-03T02:31:31.990Z,1026.52
2017-04-03T02:32:41.209Z,1026.53
2017-04-03T02:33:50.102Z,1026.54
2017-04-03T02:34:59.662Z,1026.53
2017-04-03T02:36:08.876Z,1026.56
2017-04-03T02:37:18.269Z,1026.55
2017-04-03T02:38:27.160Z,1026.54
2017-04-03T02:39:36.046Z,1026.54
2017-04-03T02:40:44.935Z,1026.53
2017-04-03T02:41:53.825Z,1026.59
2017-04-03T02:43:02.818Z,1026.54
2017-04-03T02:44:12.028Z,1026.54
2017-04-03T02:45:20.921Z,1026.62
2017-04-03T02:46:29.809Z,1026.58
2017-04-03T02:47:39.027Z,1026.58
2017-04-03T02:48:47.960Z,1026.59
2017-04-03T02:49:57.190Z,1026.6
2017-04-03T02:51:06.076Z,1026.64
2017-04-03T02:52:14.969Z,1026.64
2017-04-03T02:53:24.184Z,1026.58
2017-04-03T02:54:33.500Z,1026.59
2017-04-03T02:55:42.388Z,1026.58
2017-04-03T02:56:51.282Z,1026.6
2017-04-03T02:58:00.500Z,1026.58
2017-04-03T02:59:10.040Z,1026.59
2017-04-03T03:00:19.307Z,1026.6
2017-04-03T03:01:28.194Z,1026.63
2017-04-03T03:02:37.413Z,1026.58
2017-04-03T03:03:46.301Z,1026.58
2017-04-03T03:04:55.191Z,1026.56
2017-04-03T03:06:04.381Z,1026.58
2017-04-03T03:07:13.277Z,1026.62
2017-04-03T03:08:22.496Z,1026.61
2017-04-03T03:09:32.364Z,1026.58
2017-04-03T03:10:41.581Z,1026.63
2017-04-03T03:11:50.722Z,1026.63
2017-04-03T03:12:59.934Z,1026.6
2017-04-03T03:14:09.151Z,1026.67
2017-04-03T03:15:18.365Z,1026.66
2017-04-03T03:16:27.578Z,1026.63
2017-04-03T03:17:36.519Z,1026.68
2017-04-03T03:18:45.410Z,1026.66
2017-04-03T03:19:54.298Z,1026.67
2017-04-03T03:21:03.832Z,1026.74
2017-04-03T03:22:12.725Z,1026.72
2017-04-03T03:23:22.095Z,1026.67
2017-04-03T03:24:30.987Z,1026.67
2017-04-03T03:25:39.877Z,1026.67
2017-04-03T03:26:48.767Z,1026.69
2017-04-03T03:27:57.659Z,1026.73
2017-04-03T03:29:06.705Z,1026.66
2017-04-03T03:30:15.593Z,1026.69
2017-04-03T03:31:24.484Z,1026.72
2017-04-03T03:32:33.703Z,1026.72
2017-04-03T03:33:42.591Z,1026.72
2017-04-03T03:34:51.781Z,1026.72
2017-04-03T03:36:00.668Z,1026.78
2017-04-03T03:37:09.557Z,1026.78
2017-04-03T03:38:18.448Z,1026.79
2017-04-03T03:39:27.663Z,1026.8
2017-04-03T03:40:36.607Z,1026.76
2017-04-03T03:41:45.496Z,1026.79
2017-04-03T03:42:54.720Z,1026.77
2017-04-03T03:44:03.935Z,1026.82
2017-04-03T03:45:12.834Z,1026.82
2017-04-03T03:46:21.724Z,1026.8
2017-04-03T03:47:30.618Z,1026.8
2017-04-03T03:48:39.503Z,1026.79
2017-04-03T03:49:48.725Z,1026.8
2017-04-03T03:50:57.938Z,1026.85
2017-04-03T03:52:07.355Z,1026.81
2017-04-03T03:53:16.246Z,1026.85
2017-04-03T03:54:25.465Z,1026.84
2017-04-03T03:55:34.349Z,1026.88
2017-04-03T03:56:43.567Z,1026.85
2017-04-03T03:57:52.932Z,1026.83
2017-04-03T03:59:01.821Z,1026.88
2017-04-03T04:00:11.362Z,1026.88
2017-04-03T04:01:20.257Z,1026.86
2017-04-03T04:02:29.151Z,1026.87
2017-04-03T04:03:38.292Z,1026.92
2017-04-03T04:04:47.837Z,1026.9
2017-04-03T04:05:56.734Z,1026.91
2017-04-03T04:07:05.946Z,1026.9
2017-04-03T04:08:15.491Z,1026.9
2017-04-03T04:09:24.528Z,1026.9
2017-04-03T04:10:33.419Z,1026.93
2017-04-03T04:11:42.314Z,1026.93
2017-04-03T04:12:51.206Z,1026.89
2017-04-03T04:14:00.423Z,1026.97
2017-04-03T04:15:09.362Z,1026.98
2017-04-03T04:16:18.352Z,1026.92
2017-04-03T04:17:27.245Z,1026.96
2017-04-03T04:18:36.785Z,1026.97
2017-04-03T04:19:46.323Z,1026.94
2017-04-03T04:20:55.693Z,1026.93
2017-04-03T04:22:04.585Z,1026.96
2017-04-03T04:23:14.453Z,1026.94
2017-04-03T04:24:23.671Z,1026.93
2017-04-03T04:25:33.211Z,1026.97
2017-04-03T04:26:42.202Z,1026.97
2017-04-03T04:27:51.459Z,1027.01
2017-04-03T04:29:00.678Z,1026.99
2017-04-03T04:30:09.572Z,1027.02
2017-04-03T04:31:19.121Z,1027
2017-04-03T04:32:28.383Z,1027
2017-04-03T04:33:37.596Z,1026.98
2017-04-03T04:34:46.816Z,1027.04
2017-04-03T04:35:55.711Z,1027.02
2017-04-03T04:37:05.258Z,1027.05
2017-04-03T04:38:14.474Z,1027.09
2017-04-03T04:39:23.685Z,1027.07
2017-04-03T04:40:32.579Z,1027.06
2017-04-03T04:41:41.470Z,1027.11
2017-04-03T04:42:50.362Z,1027.1
2017-04-03T04:43:59.406Z,1027.15
2017-04-03T04:45:08.954Z,1027.13
2017-04-03T04:46:18.172Z,1027.14
2017-04-03T04:47:27.718Z,1027.13
2017-04-03T04:48:36.931Z,1027.17
2017-04-03T04:49:46.398Z,1027.12
2017-04-03T04:50:55.618Z,1027.12
2017-04-03T04:52:04.527Z,1027.13
2017-04-03T04:53:13.445Z,1027.14
2017-04-03T04:54:22.986Z,1027.18
2017-04-03T04:55:31.954Z,1027.15
2017-04-03T04:56:40.845Z,1027.18
2017-04-03T04:57:50.065Z,1027.21
2017-04-03T04:58:59.601Z,1027.22
2017-04-03T05:00:08.819Z,1027.23
2017-04-03T05:01:18.070Z,1027.21
2017-04-03T05:02:26.958Z,1027.19
2017-04-03T05:03:35.849Z,1027.21
2017-04-03T05:04:45.067Z,1027.27
2017-04-03T05:05:53.955Z,1027.27
2017-04-03T05:07:03.099Z,1027.24
2017-04-03T05:08:12.326Z,1027.26
2017-04-03T05:09:22.186Z,1027.25
2017-04-03T05:10:31.078Z,1027.29
2017-04-03T05:11:39.969Z,1027.34
2017-04-03T05:12:49.118Z,1027.35
2017-04-03T05:13:58.334Z,1027.36
2017-04-03T05:15:07.886Z,1027.38
2017-04-03T05:16:17.103Z,1027.35
2017-04-03T05:17:26.321Z,1027.36
2017-04-03T05:18:35.591Z,1027.36
2017-04-03T05:19:44.484Z,1027.39
2017-04-03T05:20:54.352Z,1027.45
2017-04-03T05:22:03.249Z,1027.43
2017-04-03T05:23:12.468Z,1027.48
2017-04-03T05:24:22.050Z,1027.49
2017-04-03T05:25:30.944Z,1027.5
2017-04-03T05:26:40.194Z,1027.51
2017-04-03T05:27:49.417Z,1027.41
2017-04-03T05:28:58.633Z,1027.47
2017-04-03T05:30:07.906Z,1027.46
2017-04-03T05:31:17.124Z,1027.52
2017-04-03T05:32:26.016Z,1027.5
2017-04-03T05:33:34.906Z,1027.51
2017-04-03T05:34:44.119Z,1027.51
2017-04-03T05:35:53.445Z,1027.55
2017-04-03T05:37:02.987Z,1027.52
2017-04-03T05:38:12.203Z,1027.53
2017-04-03T05:39:21.417Z,1027.55
2017-04-03T05:40:30.676Z,1027.55
2017-04-03T05:41:40.043Z,1027.6
2017-04-03T05:42:48.934Z,1027.64
2017-04-03T05:43:58.479Z,1027.62
2017-04-03T05:45:07.692Z,1027.66
2017-04-03T05:46:16.910Z,1027.68
2017-04-03T05:47:26.704Z,1027.65
2017-04-03T05:48:35.597Z,1027.67
2017-04-03T05:49:45.131Z,1027.64
2017-04-03T05:50:54.713Z,1027.71
2017-04-03T05:52:03.922Z,1027.68
2017-04-03T05:53:13.020Z,1027.73
2017-04-03T05:54:22.235Z,1027.71
2017-04-03T05:55:31.451Z,1027.69
2017-04-03T05:56:40.673Z,1027.71
2017-04-03T05:57:49.565Z,1027.75
2017-04-03T05:58:59.249Z,1027.76
2017-04-03T06:00:08.466Z,1027.76
2017-04-03T06:01:17.353Z,1027.76
2017-04-03T06:02:26.271Z,1027.8
2017-04-03T06:03:35.203Z,1027.8
2017-04-03T06:04:44.237Z,1027.81
2017-04-03T06:05:53.450Z,1027.84
2017-04-03T06:07:02.988Z,1027.87
2017-04-03T06:08:12.853Z,1027.86
2017-04-03T06:09:22.072Z,1027.84
2017-04-03T06:10:31.537Z,1027.87
2017-04-03T06:11:40.422Z,1027.88
2017-04-03T06:12:49.638Z,1027.88
2017-04-03T06:13:59.174Z,1027.89
2017-04-03T06:15:08.711Z,1027.91
2017-04-03T06:16:18.375Z,1027.85
2017-04-03T06:17:27.266Z,1027.87
2017-04-03T06:18:36.803Z,1027.86
2017-04-03T06:19:45.690Z,1027.91
2017-04-03T06:20:55.227Z,1027.92
2017-04-03T06:22:04.915Z,1027.92
2017-04-03T06:23:14.457Z,1027.94
2017-04-03T06:24:23.678Z,1027.92
2017-04-03T06:25:32.890Z,1027.96
2017-04-03T06:26:42.110Z,1027.95
2017-04-03T06:27:51.422Z,1027.99
2017-04-03T06:29:00.643Z,1027.99
2017-04-03T06:30:09.860Z,1028
2017-04-03T06:31:18.757Z,1027.99
2017-04-03T06:32:28.298Z,1028.01
2017-04-03T06:33:37.665Z,1028.05
2017-04-03T06:34:47.203Z,1028.01
2017-04-03T06:35:56.091Z,1028.06
2017-04-03T06:37:04.983Z,1028.05
2017-04-03T06:38:14.523Z,1028.05
2017-04-03T06:39:23.785Z,1028.1
2017-04-03T06:40:32.675Z,1028.08
2017-04-03T06:41:41.895Z,1028.07
2017-04-03T06:42:50.788Z,1028.1
2017-04-03T06:44:00.329Z,1028.13
2017-04-03T06:45:09.593Z,1028.14
2017-04-03T06:46:18.813Z,1028.15
2017-04-03T06:47:27.708Z,1028.17
2017-04-03T06:48:36.598Z,1028.17
2017-04-03T06:49:45.492Z,1028.13
2017-04-03T06:50:54.496Z,1028.14
2017-04-03T06:52:03.711Z,1028.15
2017-04-03T06:53:12.602Z,1028.17
2017-04-03T06:54:21.493Z,1028.18
2017-04-03T06:55:30.382Z,1028.18
2017-04-03T06:56:39.422Z,1028.21
2017-04-03T06:57:48.324Z,1028.22
2017-04-03T06:58:57.867Z,1028.23
2017-04-03T07:00:06.758Z,1028.24
2017-04-03T07:01:15.973Z,1028.24
2017-04-03T07:02:25.762Z,1028.2
2017-04-03T07:03:34.658Z,1028.21
2017-04-03T07:04:43.548Z,1028.21
2017-04-03T07:05:52.782Z,1028.25
2017-04-03T07:07:01.675Z,1028.24
2017-04-03T07:08:10.818Z,1028.29
2017-04-03T07:09:19.711Z,1028.28
2017-04-03T07:10:28.927Z,1028.28
2017-04-03T07:11:37.820Z,1028.29
2017-04-03T07:12:47.034Z,1028.27
2017-04-03T07:13:56.352Z,1028.28
2017-04-03T07:15:05.252Z,1028.29
2017-04-03T07:16:14.476Z,1028.33
2017-04-03T07:17:23.363Z,1028.35
2017-04-03T07:18:32.253Z,1028.32
2017-04-03T07:19:41.298Z,1028.36
2017-04-03T07:20:50.196Z,1028.38
2017-04-03T07:21:59.094Z,1028.38
2017-04-03T07:23:08.314Z,1028.39
2017-04-03T07:24:17.530Z,1028.39
2017-04-03T07:25:26.850Z,1028.38
2017-04-03T07:26:36.072Z,1028.41
2017-04-03T07:27:45.290Z,1028.43
2017-04-03T07:28:54.836Z,1028.45
2017-04-03T07:30:03.727Z,1028.47
2017-04-03T07:31:13.046Z,1028.47
2017-04-03T07:32:22.264Z,1028.5
2017-04-03T07:33:31.485Z,1028.54
2017-04-03T07:34:40.702Z,1028.5
2017-04-03T07:35:49.922Z,1028.52
2017-04-03T07:36:59.631Z,1028.49
2017-04-03T07:38:09.168Z,1028.51
2017-04-03T07:39:18.706Z,1028.5
2017-04-03T07:40:28.891Z,1028.49
2017-04-03T07:41:38.109Z,1028.53
2017-04-03T07:42:47.054Z,1028.55
2017-04-03T07:43:56.269Z,1028.57
2017-04-03T07:45:05.187Z,1028.61
2017-04-03T07:46:14.079Z,1028.53
2017-04-03T07:47:22.982Z,1028.54
2017-04-03T07:48:31.926Z,1028.55
2017-04-03T07:49:40.816Z,1028.59
2017-04-03T07:50:50.681Z,1028.56
2017-04-03T07:51:59.576Z,1028.62
2017-04-03T07:53:08.471Z,1028.66
2017-04-03T07:54:18.166Z,1028.68
2017-04-03T07:55:27.064Z,1028.68
2017-04-03T07:56:36.278Z,1028.68
2017-04-03T07:57:45.168Z,1028.64
2017-04-03T07:58:54.711Z,1028.71
2017-04-03T08:00:03.978Z,1028.62
2017-04-03T08:01:13.524Z,1028.59
2017-04-03T08:02:22.744Z,1028.6
2017-04-03T08:03:31.961Z,1028.6
2017-04-03T08:04:40.858Z,1028.61
2017-04-03T08:05:49.801Z,1028.61
2017-04-03T08:06:59.057Z,1028.59
2017-04-03T08:08:07.954Z,1028.56
2017-04-03T08:09:17.168Z,1028.6
2017-04-03T08:10:26.707Z,1028.61
2017-04-03T08:11:35.754Z,1028.64
2017-04-03T08:12:44.972Z,1028.64
2017-04-03T08:13:54.189Z,1028.63
2017-04-03T08:15:03.407Z,1028.6
2017-04-03T08:16:12.947Z,1028.67
2017-04-03T08:17:22.222Z,1028.72
2017-04-03T08:18:31.449Z,1028.69
2017-04-03T08:19:41.321Z,1028.73
2017-04-03T08:20:51.186Z,1028.75
2017-04-03T08:22:00.735Z,1028.71
2017-04-03T08:23:10.326Z,1028.75
2017-04-03T08:24:19.872Z,1028.69
2017-04-03T08:25:29.085Z,1028.73
2017-04-03T08:26:37.979Z,1028.72
2017-04-03T08:27:46.876Z,1028.72
2017-04-03T08:28:56.674Z,1028.71
2017-04-03T08:30:06.217Z,1028.71
2017-04-03T08:31:15.108Z,1028.7
2017-04-03T08:32:24.325Z,1028.75
2017-04-03T08:33:33.213Z,1028.77
2017-04-03T08:34:42.779Z,1028.79
2017-04-03T08:35:52.320Z,1028.77
2017-04-03T08:37:01.212Z,1028.77
2017-04-03T08:38:10.102Z,1028.78
2017-04-03T08:39:19.320Z,1028.81
2017-04-03T08:40:29.061Z,1028.82
2017-04-03T08:41:37.953Z,1028.84
2017-04-03T08:42:46.846Z,1028.88
2017-04-03T08:43:56.063Z,1028.88
2017-04-03T08:45:04.961Z,1028.83
2017-04-03T08:46:13.905Z,1028.85
2017-04-03T08:47:23.127Z,1028.83
2017-04-03T08:48:32.345Z,1028.82
2017-04-03T08:49:41.565Z,1028.8
2017-04-03T08:50:50.460Z,1028.8
2017-04-03T08:51:59.731Z,1028.78
2017-04-03T08:53:08.948Z,1028.81
2017-04-03T08:54:18.490Z,1028.81
2017-04-03T08:55:27.383Z,1028.79
2017-04-03T08:56:36.279Z,1028.78
2017-04-03T08:57:46.124Z,1028.82
2017-04-03T08:58:55.014Z,1028.82
2017-04-03T09:00:03.914Z,1028.77
2017-04-03T09:01:13.133Z,1028.8
2017-04-03T09:02:22.699Z,1028.78
2017-04-03T09:03:31.590Z,1028.82
2017-04-03T09:04:40.481Z,1028.81
2017-04-03T09:05:50.024Z,1028.79
2017-04-03T09:06:58.919Z,1028.77
2017-04-03T09:08:07.815Z,1028.72
2017-04-03T09:09:17.507Z,1028.74
2017-04-03T09:10:26.771Z,1028.72
2017-04-03T09:11:35.998Z,1028.74
2017-04-03T09:12:45.546Z,1028.7
2017-04-03T09:13:54.437Z,1028.76
2017-04-03T09:15:03.808Z,1028.79
2017-04-03T09:16:12.699Z,1028.76
2017-04-03T09:17:21.594Z,1028.78
2017-04-03T09:18:30.806Z,1028.82
2017-04-03T09:19:39.699Z,1028.75
2017-04-03T09:20:49.544Z,1028.78
2017-04-03T09:21:58.446Z,1028.78
2017-04-03T09:23:07.993Z,1028.75
2017-04-03T09:24:17.219Z,1028.81
2017-04-03T09:25:26.108Z,1028.79
2017-04-03T09:26:35.377Z,1028.8
2017-04-03T09:27:44.269Z,1028.77
2017-04-03T09:28:53.485Z,1028.83
2017-04-03T09:30:03.041Z,1028.83
2017-04-03T09:31:11.935Z,1028.86
2017-04-03T09:32:21.247Z,1028.85
2017-04-03T09:33:30.143Z,1028.87
2017-04-03T09:34:39.364Z,1028.85
2017-04-03T09:35:48.254Z,1028.9
2017-04-03T09:36:57.792Z,1028.86
2017-04-03T09:38:06.786Z,1028.83
2017-04-03T09:39:15.678Z,1028.84
2017-04-03T09:40:24.898Z,1028.85
2017-04-03T09:41:34.444Z,1028.86
2017-04-03T09:42:43.344Z,1028.83
2017-04-03T09:43:52.613Z,1028.9
2017-04-03T09:45:01.505Z,1028.9
2017-04-03T09:46:10.398Z,1028.9
2017-04-03T09:47:19.611Z,1028.89
2017-04-03T09:48:28.551Z,1028.86
2017-04-03T09:49:38.024Z,1028.84
2017-04-03T09:50:46.926Z,1028.84
2017-04-03T09:51:56.145Z,1028.85
2017-04-03T09:53:05.041Z,1028.85
2017-04-03T09:54:13.932Z,1028.84
2017-04-03T09:55:22.877Z,1028.84
2017-04-03T09:56:31.773Z,1028.83
2017-04-03T09:57:41.319Z,1028.83
2017-04-03T09:58:50.540Z,1028.81
2017-04-03T09:59:59.433Z,1028.84
2017-04-03T10:01:08.582Z,1028.84
2017-04-03T10:02:17.474Z,1028.79
2017-04-03T10:03:26.691Z,1028.81
2017-04-03T10:04:35.581Z,1028.83
2017-04-03T10:05:44.472Z,1028.85
2017-04-03T10:06:53.519Z,1028.83
2017-04-03T10:08:03.063Z,1028.81
2017-04-03T10:09:11.955Z,1028.76
2017-04-03T10:10:21.174Z,1028.81
2017-04-03T10:11:30.075Z,1028.79
2017-04-03T10:12:39.339Z,1028.8
2017-04-03T10:13:48.238Z,1028.75
2017-04-03T10:14:57.453Z,1028.76
2017-04-03T10:16:06.352Z,1028.78
2017-04-03T10:17:15.569Z,1028.77
2017-04-03T10:18:24.834Z,1028.77
2017-04-03T10:19:34.051Z,1028.81
2017-04-03T10:20:42.946Z,1028.78
2017-04-03T10:21:51.842Z,1028.76
2017-04-03T10:23:01.057Z,1028.77
2017-04-03T10:24:10.147Z,1028.75
2017-04-03T10:25:19.040Z,1028.76
2017-04-03T10:26:28.263Z,1028.75
2017-04-03T10:27:37.157Z,1028.72
2017-04-03T10:28:47.021Z,1028.73
2017-04-03T10:29:55.915Z,1028.76
2017-04-03T10:31:05.139Z,1028.7
2017-04-03T10:32:14.031Z,1028.75
2017-04-03T10:33:22.924Z,1028.74
2017-04-03T10:34:32.466Z,1028.72
2017-04-03T10:35:41.509Z,1028.74
2017-04-03T10:36:50.404Z,1028.72
2017-04-03T10:37:59.624Z,1028.72
2017-04-03T10:39:09.166Z,1028.72
2017-04-03T10:40:18.060Z,1028.78
2017-04-03T10:41:27.339Z,1028.75
2017-04-03T10:42:36.558Z,1028.76
2017-04-03T10:43:45.782Z,1028.73
2017-04-03T10:44:54.678Z,1028.7
2017-04-03T10:46:03.585Z,1028.67
2017-04-03T10:47:12.631Z,1028.65
2017-04-03T10:48:21.522Z,1028.69
2017-04-03T10:49:31.064Z,1028.66
2017-04-03T10:50:39.954Z,1028.71
2017-04-03T10:51:48.850Z,1028.71
2017-04-03T10:52:58.465Z,1028.69
2017-04-03T10:54:08.024Z,1028.69
2017-04-03T10:55:17.569Z,1028.68
2017-04-03T10:56:26.469Z,1028.68
2017-04-03T10:57:35.689Z,1028.69
2017-04-03T10:58:45.155Z,1028.66
2017-04-03T10:59:54.050Z,1028.67
2017-04-03T11:01:03.276Z,1028.68
2017-04-03T11:02:12.179Z,1028.66
2017-04-03T11:03:21.427Z,1028.61
2017-04-03T11:04:31.049Z,1028.63
2017-04-03T11:05:40.266Z,1028.67
2017-04-03T11:06:49.168Z,1028.64
2017-04-03T11:07:58.102Z,1028.61
2017-04-03T11:09:07.355Z,1028.6
2017-04-03T11:10:16.722Z,1028.59
2017-04-03T11:11:25.619Z,1028.52
2017-04-03T11:12:35.055Z,1028.54
2017-04-03T11:13:43.953Z,1028.5
2017-04-03T11:14:52.846Z,1028.54
2017-04-03T11:16:02.220Z,1028.52
2017-04-03T11:17:11.114Z,1028.47
2017-04-03T11:18:20.011Z,1028.5
2017-04-03T11:19:28.909Z,1028.47
2017-04-03T11:20:37.837Z,1028.43
2017-04-03T11:21:47.413Z,1028.4
2017-04-03T11:22:57.293Z,1028.4
2017-04-03T11:24:06.511Z,1028.41
2017-04-03T11:25:15.413Z,1028.41
2017-04-03T11:26:24.358Z,1028.4
2017-04-03T11:27:33.385Z,1028.4
2017-04-03T11:28:42.306Z,1028.38
2017-04-03T11:29:51.235Z,1028.36
2017-04-03T11:31:00.457Z,1028.38
2017-04-03T11:32:09.400Z,1028.42
2017-04-03T11:33:18.445Z,1028.39
2017-04-03T11:34:27.691Z,1028.4
2017-04-03T11:35:36.599Z,1028.36
2017-04-03T11:36:45.551Z,1028.38
2017-04-03T11:37:54.785Z,1028.35
2017-04-03T11:39:04.282Z,1028.38
2017-04-03T11:40:13.510Z,1028.4
2017-04-03T11:41:22.960Z,1028.33
2017-04-03T11:42:32.198Z,1028.33
2017-04-03T11:43:41.742Z,1028.32
2017-04-03T11:44:51.013Z,1028.3
2017-04-03T11:45:59.983Z,1028.32
2017-04-03T11:47:09.206Z,1028.28
2017-04-03T11:48:18.126Z,1028.28
2017-04-03T11:49:27.345Z,1028.3
2017-04-03T11:50:36.719Z,1028.23
2017-04-03T11:51:46.265Z,1028.24
2017-04-03T11:52:55.163Z,1028.24
2017-04-03T11:54:04.054Z,1028.24
2017-04-03T11:55:13.277Z,1028.23
2017-04-03T11:56:22.599Z,1028.25
2017-04-03T11:57:31.513Z,1028.28
2017-04-03T11:58:40.409Z,1028.29
2017-04-03T11:59:49.312Z,1028.26
2017-04-03T12:00:58.643Z,1028.29
2017-04-03T12:02:08.150Z,1028.31
2017-04-03T12:03:17.146Z,1028.33
2017-04-03T12:04:26.842Z,1028.29
2017-04-03T12:05:35.733Z,1028.31
2017-04-03T12:06:44.639Z,1028.29
2017-04-03T12:07:54.334Z,1028.31
2017-04-03T12:09:03.984Z,1028.3
2017-04-03T12:10:12.884Z,1028.27
2017-04-03T12:11:21.784Z,1028.24
2017-04-03T12:12:31.051Z,1028.24
2017-04-03T12:13:40.527Z,1028.19
2017-04-03T12:14:49.752Z,1028.21
2017-04-03T12:15:58.655Z,1028.2
2017-04-03T12:17:07.563Z,1028.23
2017-04-03T12:18:16.470Z,1028.27
2017-04-03T12:19:25.697Z,1028.21
2017-04-03T12:20:34.649Z,1028.21
2017-04-03T12:21:43.550Z,1028.19
2017-04-03T12:22:52.777Z,1028.21
2017-04-03T12:24:02.001Z,1028.23
2017-04-03T12:25:11.378Z,1028.19
2017-04-03T12:26:20.609Z,1028.17
2017-04-03T12:27:30.159Z,1028.18
2017-04-03T12:28:39.383Z,1028.15
2017-04-03T12:29:48.284Z,1028.18
2017-04-03T12:30:57.763Z,1028.19
2017-04-03T12:32:06.989Z,1028.19
2017-04-03T12:33:15.890Z,1028.19
2017-04-03T12:34:24.793Z,1028.18
2017-04-03T12:35:33.699Z,1028.16
2017-04-03T12:36:43.404Z,1028.1
2017-04-03T12:37:52.639Z,1028.08
2017-04-03T12:39:01.552Z,1028.1
2017-04-03T12:40:10.492Z,1028.09
2017-04-03T12:41:19.722Z,1028.12
2017-04-03T12:42:29.329Z,1028.11
2017-04-03T12:43:38.578Z,1028.09
2017-04-03T12:44:47.815Z,1028.05
2017-04-03T12:45:57.048Z,1028.1
2017-04-03T12:47:05.958Z,1028.11
2017-04-03T12:48:15.337Z,1028.14
2017-04-03T12:49:24.246Z,1028.17
2017-04-03T12:50:33.478Z,1028.17
2017-04-03T12:51:42.388Z,1028.15
2017-04-03T12:52:51.613Z,1028.15
2017-04-03T12:54:00.669Z,1028.11
2017-04-03T12:55:09.898Z,1028.12
2017-04-03T12:56:18.804Z,1028.14
2017-04-03T12:57:27.707Z,1028.16
2017-04-03T12:58:36.613Z,1028.08
2017-04-03T12:59:45.664Z,1028.13
2017-04-03T13:00:54.892Z,1028.13
2017-04-03T13:02:04.127Z,1028.12
2017-04-03T13:03:13.354Z,1028.16
2017-04-03T13:04:22.589Z,1028.07
2017-04-03T13:05:31.893Z,1028.05
2017-04-03T13:06:41.124Z,1028.07
2017-04-03T13:07:50.028Z,1028.06
2017-04-03T13:08:59.258Z,1028.08
2017-04-03T13:10:08.486Z,1028.07
2017-04-03T13:11:17.541Z,1028.1
2017-04-03T13:12:26.806Z,1028.03
2017-04-03T13:13:35.711Z,1028.06
2017-04-03T13:14:44.615Z,1028.04
2017-04-03T13:15:54.209Z,1028.02
2017-04-03T13:17:03.340Z,1027.96
2017-04-03T13:18:12.611Z,1028.02
2017-04-03T13:19:21.861Z,1027.99
2017-04-03T13:20:30.809Z,1028.01
2017-04-03T13:21:40.367Z,1027.95
2017-04-03T13:22:49.852Z,1027.96
2017-04-03T13:23:59.438Z,1027.96
2017-04-03T13:25:08.339Z,1027.96
2017-04-03T13:26:17.567Z,1027.91
2017-04-03T13:27:26.466Z,1027.94
2017-04-03T13:28:36.120Z,1027.92
2017-04-03T13:29:45.674Z,1027.95
2017-04-03T13:30:54.911Z,1027.94
2017-04-03T13:32:04.145Z,1027.92
2017-04-03T13:33:13.374Z,1027.91
2017-04-03T13:34:22.426Z,1027.94
2017-04-03T13:35:31.326Z,1027.94
2017-04-03T13:36:40.554Z,1027.88
2017-04-03T13:37:49.783Z,1027.86
2017-04-03T13:38:58.684Z,1027.84
2017-04-03T13:40:07.836Z,1027.86
2017-04-03T13:41:17.412Z,1027.89
2017-04-03T13:42:26.315Z,1027.86
2017-04-03T13:43:36.195Z,1027.86
2017-04-03T13:44:45.099Z,1027.89
2017-04-03T13:45:54.156Z,1027.85
2017-04-03T13:47:03.061Z,1027.75
2017-04-03T13:48:12.293Z,1027.77
2017-04-03T13:49:21.205Z,1027.74
2017-04-03T13:50:30.116Z,1027.81
2017-04-03T13:51:39.444Z,1027.84
2017-04-03T13:52:48.346Z,1027.77
2017-04-03T13:53:57.573Z,1027.81
2017-04-03T13:55:06.803Z,1027.87
2017-04-03T13:56:16.353Z,1027.83
2017-04-03T13:57:25.735Z,1027.92
2017-04-03T13:58:34.638Z,1028.05
2017-04-03T13:59:43.543Z,1028.05